This is the latest recevied weather packets stored in our database for station/object NO3U. If no packets are shown the sender has not sent any weather packets the latest 1 day(s).
| Time | Temp. | Humidity | Pressure | Rain* | Wind** | Luminosity | Snow |
|---|---|---|---|---|---|---|---|
| 1778036865 | 15.56° C | 91% | 1008.6 hPa | 0 mm | 0.45 m/s, 107° | 0 W/m² | - |
| 1778036562 | 15.56° C | 91% | 1008.6 hPa | 0 mm | 0 m/s | 0 W/m² | - |
| 1778036259 | 15.56° C | 91% | 1008.7 hPa | 0 mm | 0 m/s | 0 W/m² | - |
| 1778035955 | 15.56° C | 90% | 1008.9 hPa | 0 mm | 0 m/s | 0 W/m² | - |
| 1778035652 | 15.56° C | 90% | 1009 hPa | 0 mm | 0 m/s | 0 W/m² | - |
| 1778035350 | 15.56° C | 90% | 1009.2 hPa | 0 mm | 0 m/s | 0 W/m² | - |
| 1778035046 | 15.56° C | 90% | 1008.9 hPa | 0 mm | 0 m/s | 0 W/m² | - |
| 1778034743 | 15.56° C | 89% | 1008.9 hPa | 0 mm | 0 m/s | 0 W/m² | - |
| 1778034440 | 15.56° C | 89% | 1009 hPa | 0 mm | 0.45 m/s, 326° | 0 W/m² | - |
| 1778034138 | 16.11° C | 89% | 1009 hPa | 0 mm | 0 m/s | 0 W/m² | - |
| 1778033835 | 16.11° C | 88% | 1009.1 hPa | 0 mm | 0.45 m/s, 359° | 0 W/m² | - |
| 1778033532 | 16.11° C | 87% | 1009 hPa | 0 mm | 0.45 m/s, 317° | 0 W/m² | - |
| 1778033229 | 16.11° C | 87% | 1008.8 hPa | 0 mm | 0.89 m/s, 278° | 0 W/m² | - |
| 1778032927 | 16.11° C | 86% | 1008.7 hPa | 0 mm | 0 m/s | 0 W/m² | - |
| 1778032624 | 16.11° C | 86% | 1008.5 hPa | 0 mm | 0.45 m/s, 325° | 0 W/m² | - |
| 1778032322 | 16.67° C | 85% | 1008.7 hPa | 0 mm | 0.89 m/s, 304° | 0 W/m² | - |
| 1778032018 | 16.67° C | 84% | 1008.7 hPa | 0 mm | 1.34 m/s, 267° | 0 W/m² | - |
| 1778031714 | 17.22° C | 82% | 1008.5 hPa | 0 mm | 2.24 m/s, 283° | 0 W/m² | - |
| 1778031412 | 17.78° C | 78% | 1008.8 hPa | 0 mm | 0.89 m/s, 320° | 0 W/m² | - |
| 1778031109 | 18.33° C | 74% | 1008.2 hPa | 0 mm | 0.89 m/s, 344° | 0 W/m² | - |
| 1778030805 | 19.44° C | 68% | 1008.4 hPa | 0 mm | 4.92 m/s, 339° | 0 W/m² | - |
| 1778030502 | 20.56° C | 56% | 1007.9 hPa | 0 mm | 1.34 m/s, 339° | 0 W/m² | - |
| 1778030200 | 20.56° C | 56% | 1007.6 hPa | 0 mm | 0.45 m/s, 116° | 0 W/m² | - |
| 1778029896 | 20.56° C | 56% | 1007.3 hPa | 0 mm | 0.45 m/s, 102° | 0 W/m² | - |
| 1778029594 | 20.56° C | 56% | 1007.5 hPa | 0 mm | 0 m/s | 0 W/m² | - |
* Rain latest hour (hover to see other rain measurements)
** Current wind speed in m/s (hover to see current wind gust speed)